New Orleans, Louisiana
Traffic Map
Current Weather Conditions
New Orleans, Louisiana
Clear
Clear
84°
Feels Like: 93°
Wind Chill: 84° Ceiling: Unl
Heat Index: 93° Visibility: 10mi
Dew Point: 76° Wind: 7mph
Humidity: 76% Direction: 90° (E)
Pressure: 29.96in Gusts: 0mph
Raw Report DataKNEW 300253Z 09006KT 10SM CLR 29/24 A2996 RMK AO2 SLP138 T02890244 51015
Traffic Incident Summary
Active as of:
Severity:
Category:
InformationThere was an issue retrieving the traffic information for this location. Please try a different location or try again shortly.
Advertisements
Track Severe Weather on mobile